Time;durP1;ratioP1;P1;durP2;ratioP2;P2;SDS_P1;SDS_P2;PMS_P1;PMS_P2;Temp;Humidity;BMP_temperature;BMP_pressure;BME280_temperature;BME280_humidity;BME280_pressure;Samples;Min_cycle;Max_cycle;Signal;HPM_P1;HPM_P2
2022/06/13 21:06:15;;;;;;;6.00;3.20;;;12.90;99.90;;;;;;5954326;23;20375;31
2022/06/13 21:11:28;;;;;;;14.63;3.50;;;12.80;99.90;;;;;;4821500;29;20447;-49
2022/06/13 21:13:54;;;;;;;14.07;4.43;;;12.80;99.90;;;;;;4823266;29;20428;-48
2022/06/13 21:16:20;;;;;;;8.87;2.70;;;12.80;99.90;;;;;;4823497;29;20202;-48
2022/06/13 21:18:46;;;;;;;9.77;3.17;;;12.70;99.90;;;;;;4822910;29;20468;-48
2022/06/13 21:21:12;;;;;;;7.70;3.10;;;12.70;99.90;;;;;;4819842;29;20453;-48
2022/06/13 21:23:37;;;;;;;7.93;2.60;;;12.70;99.90;;;;;;4817848;29;20202;-49
2022/06/13 21:26:03;;;;;;;8.57;3.07;;;12.60;99.90;;;;;;4821885;29;20205;-48
2022/06/13 21:28:30;;;;;;;10.33;3.10;;;12.60;99.90;;;;;;4820840;29;20206;-48
2022/06/13 21:30:56;;;;;;;7.73;2.27;;;12.60;99.90;;;;;;4820355;29;20819;-49
2022/06/13 21:33:23;;;;;;;5.53;2.80;;;12.70;99.90;;;;;;4823265;29;20458;-48
2022/06/13 21:35:49;;;;;;;8.23;3.17;;;12.90;99.90;;;;;;4821742;29;20487;-48
2022/06/13 21:38:15;;;;;;;10.60;3.67;;;12.80;99.90;;;;;;4822567;29;20439;-48
2022/06/13 21:40:45;;;;;;;8.87;3.10;;;12.70;99.90;;;;;;4822133;29;20458;-48
2022/06/13 21:43:13;;;;;;;9.03;2.90;;;12.70;99.90;;;;;;4816670;29;20210;-49
2022/06/13 21:45:40;;;;;;;6.90;3.33;;;12.60;99.90;;;;;;4820899;29;20458;-48
2022/06/13 21:48:06;;;;;;;6.47;2.33;;;12.60;99.90;;;;;;4815826;29;20458;-48
2022/06/13 21:50:33;;;;;;;7.27;2.73;;;12.50;99.90;;;;;;4819685;29;20486;-48
2022/06/13 21:52:59;;;;;;;10.90;2.53;;;12.60;99.90;;;;;;4821824;29;20463;-48
2022/06/13 21:55:25;;;;;;;9.40;2.37;;;12.70;99.90;;;;;;4822073;29;20463;-48
2022/06/13 21:57:51;;;;;;;7.60;2.60;;;12.70;99.90;;;;;;4820825;29;20210;-49
2022/06/13 22:00:23;;;;;;;11.53;3.63;;;12.60;99.90;;;;;;4819773;29;20459;-48
2022/06/13 22:02:49;;;;;;;9.93;2.90;;;12.70;99.90;;;;;;4820170;29;20265;-48
2022/06/13 22:05:15;;;;;;;11.67;3.27;;;12.60;99.90;;;;;;4822115;29;20468;-48
2022/06/13 22:07:40;;;;;;;10.83;3.17;;;12.50;99.90;;;;;;4820102;29;20246;-49
2022/06/13 22:10:07;;;;;;;6.93;2.87;;;12.50;99.90;;;;;;4824351;29;20230;-48
2022/06/13 22:12:40;;;;;;;7.50;2.70;;;12.40;99.90;;;;;;4816719;29;20186;-49
2022/06/13 22:15:06;;;;;;;8.67;2.50;;;12.30;99.90;;;;;;4819320;29;20456;-48
2022/06/13 22:17:32;;;;;;;10.23;2.80;;;12.30;99.90;;;;;;4820507;29;20566;-48
2022/06/13 22:19:58;;;;;;;6.47;2.80;;;12.50;99.90;;;;;;4821531;29;20546;-48
2022/06/13 22:22:24;;;;;;;5.00;2.40;;;12.60;99.90;;;;;;4820484;29;20483;-50
2022/06/13 22:24:50;;;;;;;6.67;2.70;;;12.70;99.90;;;;;;4820124;29;20210;-48
2022/06/13 22:27:15;;;;;;;10.20;2.90;;;12.60;99.90;;;;;;4821545;29;20562;-48
2022/06/13 22:29:41;;;;;;;9.97;2.30;;;12.40;99.90;;;;;;4820359;29;20222;-48
2022/06/13 22:32:07;;;;;;;13.50;3.00;;;12.50;99.90;;;;;;4818265;29;20194;-48
2022/06/13 22:34:33;;;;;;;5.40;2.67;;;12.40;99.90;;;;;;4819350;29;20198;-49
2022/06/13 22:36:58;;;;;;;8.90;2.70;;;12.30;99.90;;;;;;4821161;29;20209;-48
2022/06/13 22:39:24;;;;;;;5.60;2.57;;;12.30;99.90;;;;;;4821056;29;20229;-48
2022/06/13 22:41:52;;;;;;;7.20;2.23;;;12.50;99.90;;;;;;4820789;29;20518;-48
2022/06/13 22:44:18;;;;;;;6.47;2.40;;;12.60;99.90;;;;;;4820143;29;20214;-48
2022/06/13 22:49:46;;;;;;;8.00;2.67;;;12.70;99.90;;;;;;4816566;29;20827;-48
2022/06/13 22:52:16;;;;;;;7.43;2.20;;;12.50;99.90;;;;;;4819769;29;20444;-48
2022/06/13 22:54:43;;;;;;;7.17;3.37;;;12.40;99.90;;;;;;4820130;29;20455;-48
2022/06/13 22:57:09;;;;;;;9.17;2.70;;;12.30;99.90;;;;;;4820249;29;20514;-49
2022/06/13 22:59:35;;;;;;;10.53;2.87;;;12.20;99.90;;;;;;4820499;29;20463;-48
2022/06/13 23:02:04;;;;;;;7.13;2.70;;;12.30;99.90;;;;;;4813049;29;20214;-48
2022/06/13 23:04:30;;;;;;;8.47;2.33;;;12.30;99.90;;;;;;4819852;29;20205;-51
2022/06/13 23:06:56;;;;;;;13.53;2.73;;;12.20;99.90;;;;;;4820487;29;20463;-50
2022/06/13 23:09:21;;;;;;;9.60;2.80;;;12.10;99.90;;;;;;4820220;29;20515;-50
2022/06/13 23:11:47;;;;;;;10.10;2.90;;;12.00;99.90;;;;;;4820069;29;20194;-50
2022/06/13 23:14:12;;;;;;;6.77;2.20;;;12.10;99.90;;;;;;4820847;29;20220;-51
2022/06/13 23:16:38;;;;;;;6.13;2.60;;;12.10;99.90;;;;;;4820922;29;20205;-50
2022/06/13 23:19:04;;;;;;;13.70;3.00;;;11.90;99.90;;;;;;4820125;29;20202;-51
2022/06/13 23:21:30;;;;;;;7.43;2.17;;;12.00;99.90;;;;;;4820289;29;20206;-51
2022/06/13 23:23:55;;;;;;;6.93;2.70;;;12.00;99.90;;;;;;4819174;29;20198;-50
2022/06/13 23:26:21;;;;;;;9.77;3.70;;;12.20;99.90;;;;;;4813143;29;20466;-50
2022/06/13 23:28:47;;;;;;;10.63;2.57;;;12.30;99.90;;;;;;4820054;29;20226;-52
2022/06/13 23:31:13;;;;;;;7.43;2.50;;;12.10;99.90;;;;;;4820440;29;20459;-50
2022/06/13 23:33:38;;;;;;;10.17;2.90;;;12.10;99.90;;;;;;4818884;29;20205;-50
2022/06/13 23:36:05;;;;;;;8.53;2.60;;;12.00;99.90;;;;;;4818758;29;20198;-50
2022/06/13 23:38:31;;;;;;;13.73;2.47;;;11.90;99.90;;;;;;4818258;29;20218;-50
2022/06/13 23:40:57;;;;;;;7.27;3.17;;;11.80;99.90;;;;;;4817338;29;20455;-50
2022/06/13 23:43:22;;;;;;;11.10;2.73;;;11.70;99.90;;;;;;4817908;29;20672;-50
2022/06/13 23:45:48;;;;;;;9.37;2.97;;;11.80;99.90;;;;;;4819312;29;20223;-50
2022/06/13 23:48:13;;;;;;;8.73;2.93;;;11.90;99.90;;;;;;4820014;29;20206;-50
2022/06/13 23:50:39;;;;;;;9.37;3.30;;;11.90;99.90;;;;;;4820402;29;20230;-50
2022/06/13 23:53:12;;;;;;;7.80;2.90;;;11.90;99.90;;;;;;4821100;29;20210;-54
2022/06/13 23:55:39;;;;;;;7.50;2.97;;;12.00;99.90;;;;;;4819341;29;20198;-54
2022/06/13 23:58:07;;;;;;;4.93;2.47;;;11.90;99.90;;;;;;4819201;29;20597;-50
